Time;durP1;ratioP1;P1;durP2;ratioP2;P2;SDS_P1;SDS_P2;PMS_P1;PMS_P2;Temp;Humidity;BMP_temperature;BMP_pressure;BME280_temperature;BME280_humidity;BME280_pressure;Samples;Min_cycle;Max_cycle;Signal;HPM_P1;HPM_P2
2023/06/03 00:01:24;;;;;;;;;;;5.40;99.90;;;-148.53;100.00;63986.66;5057508;28;19917;-81
2023/06/03 00:03:50;;;;;;;;;;;5.40;99.90;;;-148.53;100.00;63986.66;5055031;28;20283;-81
2023/06/03 00:06:16;;;;;;;;;;;5.50;99.90;;;-148.53;100.00;63986.66;5054961;28;19916;-80
2023/06/03 00:08:44;;;;;;;;;;;5.60;99.90;;;-148.53;100.00;63986.66;5062503;28;20011;-81
2023/06/03 00:11:11;;;;;;;;;;;5.80;99.90;;;-148.53;100.00;63986.66;5067004;28;19924;-80
2023/06/03 00:13:40;;;;;;;;;;;5.90;99.90;;;-148.53;100.00;63986.66;5061839;28;20279;-81
2023/06/03 00:16:06;;;;;;;;;;;6.00;99.90;;;-148.53;100.00;63986.66;5063195;28;19917;-81
2023/06/03 00:18:32;;;;;;;;;;;6.00;99.90;;;-148.53;100.00;63986.66;5058694;28;20296;-81
2023/06/03 00:20:58;;;;;;;;;;;6.10;99.90;;;-148.53;100.00;63986.66;5054188;28;19917;-80
2023/06/03 00:23:24;;;;;;;;;;;6.00;99.90;;;-148.53;100.00;63986.66;5070193;28;20007;-80
2023/06/03 00:25:49;;;;;;;;;;;5.90;99.90;;;-148.53;100.00;63986.66;5060330;28;19955;-81
2023/06/03 00:28:15;;;;;;;;;;;5.80;99.90;;;-148.53;100.00;63986.66;5054736;28;19920;-80
2023/06/03 00:30:41;;;;;;;;;;;5.80;99.90;;;-148.53;100.00;63986.66;5052152;28;19955;-81
2023/06/03 00:33:07;;;;;;;;;;;5.70;99.90;;;-148.53;100.00;63986.66;5062372;28;19920;-80
2023/06/03 00:35:33;;;;;;;;;;;5.60;99.90;;;-148.53;100.00;63986.66;5058802;28;19970;-80
2023/06/03 00:37:59;;;;;;;;;;;5.60;99.90;;;-148.53;100.00;63986.66;5070563;28;20376;-81
2023/06/03 00:40:25;;;;;;;;;;;5.50;99.90;;;-148.53;100.00;63986.66;5059606;28;19935;-82
2023/06/03 00:42:50;;;;;;;;;;;5.30;99.90;;;-148.53;100.00;63986.66;5065170;28;20031;-81
2023/06/03 00:45:16;;;;;;;;;;;5.20;99.90;;;-148.53;100.00;63986.66;5053708;28;20336;-81
2023/06/03 00:47:42;;;;;;;;;;;5.10;99.90;;;-148.53;100.00;63986.66;5066148;28;19952;-81
2023/06/03 00:50:09;;;;;;;;;;;5.00;99.90;;;-148.53;100.00;63986.66;5056149;28;19920;-81
2023/06/03 00:52:38;;;;;;;;;;;4.90;99.90;;;-148.53;100.00;63986.66;5060407;28;19978;-81
2023/06/03 00:55:04;;;;;;;;;;;4.80;99.90;;;-148.53;100.00;63986.66;5065192;28;19916;-81
2023/06/03 00:57:30;;;;;;;;;;;4.80;99.90;;;-148.53;100.00;63986.66;5053838;28;19924;-81
2023/06/03 00:59:55;;;;;;;;;;;4.70;99.90;;;-148.53;100.00;63986.66;5059823;28;19970;-82
2023/06/03 01:02:23;;;;;;;;;;;4.60;99.90;;;-148.53;100.00;63986.66;5053649;28;19992;-81
2023/06/03 01:04:50;;;;;;;;;;;4.60;99.90;;;-148.53;100.00;63986.66;5053547;28;19970;-81
2023/06/03 01:07:46;;;;;;;;;;;4.60;99.90;;;-148.53;100.00;63986.66;5054480;28;20358;-81
2023/06/03 01:10:17;;;;;;;;;;;4.60;99.90;;;-148.53;100.00;63986.66;5053409;28;19920;-81
2023/06/03 01:12:57;;;;;;;;;;;4.80;99.90;;;-148.53;100.00;63986.66;5056849;28;19916;-81
2023/06/03 01:15:26;;;;;;;;;;;4.80;99.90;;;-148.53;100.00;63986.66;5058951;28;19986;-81
2023/06/03 01:17:57;;;;;;;;;;;4.70;99.90;;;-148.53;100.00;63986.66;5053677;28;19917;-82
2023/06/03 01:20:26;;;;;;;;;;;4.60;99.90;;;-148.53;100.00;63986.66;5058886;28;19916;-81
2023/06/03 01:22:57;;;;;;;;;;;4.50;99.90;;;-148.53;100.00;63986.66;5054689;28;19917;-82
2023/06/03 01:25:23;;;;;;;;;;;4.40;99.90;;;-148.53;100.00;63986.66;5061062;28;19963;-81
2023/06/03 01:27:49;;;;;;;;;;;4.40;99.90;;;-148.53;100.00;63986.66;5054014;28;19916;-82
2023/06/03 01:30:19;;;;;;;;;;;4.40;99.90;;;-148.53;100.00;63986.66;5059601;28;19923;-79
2023/06/03 01:32:48;;;;;;;;;;;4.50;99.90;;;-148.53;100.00;63986.66;5057433;28;19924;-81
2023/06/03 01:35:14;;;;;;;;;;;4.50;99.90;;;-148.53;100.00;63986.66;5052618;28;19919;-81
2023/06/03 01:37:41;;;;;;;;;;;4.50;99.90;;;-148.53;100.00;63986.66;5053050;28;19928;-81
2023/06/03 01:40:08;;;;;;;;;;;4.50;99.90;;;-148.53;100.00;63986.66;5051605;28;19974;-82
2023/06/03 01:42:36;;;;;;;;;;;4.50;99.90;;;-148.53;100.00;63986.66;5066741;28;20020;-81
2023/06/03 01:45:04;;;;;;;;;;;4.40;99.90;;;-148.53;100.00;63986.66;5067943;28;20376;-82
2023/06/03 01:47:31;;;;;;;;;;;4.40;99.90;;;-148.53;100.00;63986.66;5058532;28;19921;-81
2023/06/03 01:49:57;;;;;;;;;;;4.30;99.90;;;-148.53;100.00;63986.66;5052006;28;20108;-81
2023/06/03 01:52:22;;;;;;;;;;;4.30;99.90;;;-148.53;100.00;63986.66;5052337;28;19917;-81
2023/06/03 01:54:48;;;;;;;;;;;4.20;99.90;;;-148.53;100.00;63986.66;5065988;28;19916;-81
2023/06/03 01:57:16;;;;;;;;;;;4.10;99.90;;;-148.53;100.00;63986.66;5058115;28;20364;-81
2023/06/03 01:59:42;;;;;;;;;;;4.00;99.90;;;-148.53;100.00;63986.66;5065660;28;20402;-81
2023/06/03 02:02:07;;;;;;;;;;;3.90;99.90;;;-148.53;100.00;63986.66;5058072;28;19952;-81
2023/06/03 02:04:33;;;;;;;;;;;3.90;99.90;;;-148.53;100.00;63986.66;5068787;28;20398;-82
2023/06/03 02:07:00;;;;;;;;;;;4.00;99.90;;;-148.53;100.00;63986.66;5059688;28;20352;-81
2023/06/03 02:09:28;;;;;;;;;;;4.00;99.90;;;-148.53;100.00;63986.66;5057103;28;20568;-81
2023/06/03 02:11:55;;;;;;;;;;;4.00;99.90;;;-148.53;100.00;63986.66;5054934;28;19917;-82
2023/06/03 02:14:22;;;;;;;;;;;4.00;99.90;;;-148.53;100.00;63986.66;5052583;28;20323;-81
2023/06/03 02:16:48;;;;;;;;;;;3.90;99.90;;;-148.53;100.00;63986.66;5065840;28;20391;-81
2023/06/03 02:19:17;;;;;;;;;;;3.80;99.90;;;-148.53;100.00;63986.66;5066312;28;19968;-81
2023/06/03 02:21:43;;;;;;;;;;;3.80;99.90;;;-148.53;100.00;63986.66;5057487;28;20383;-82
2023/06/03 02:24:11;;;;;;;;;;;3.90;99.90;;;-148.53;100.00;63986.66;5059679;28;19916;-81
2023/06/03 02:26:38;;;;;;;;;;;4.00;99.90;;;-148.53;100.00;63986.66;5059183;28;19920;-81
2023/06/03 02:29:06;;;;;;;;;;;4.00;99.90;;;-148.53;100.00;63986.66;5059604;28;19969;-82
2023/06/03 02:31:32;;;;;;;;;;;3.90;99.90;;;-148.53;100.00;63986.66;5057275;28;19924;-81
2023/06/03 02:34:00;;;;;;;;;;;3.80;99.90;;;-148.53;100.00;63986.66;5055555;28;20280;-81
2023/06/03 02:36:25;;;;;;;;;;;3.80;99.90;;;-148.53;100.00;63986.66;5062854;28;19917;-81
2023/06/03 02:38:51;;;;;;;;;;;3.90;99.90;;;-148.53;100.00;63986.66;5063996;28;20011;-82
2023/06/03 02:41:17;;;;;;;;;;;4.00;99.90;;;-148.53;100.00;63986.66;5088415;28;19921;-82
2023/06/03 02:43:42;;;;;;;;;;;3.90;99.90;;;-148.53;100.00;63986.66;5056954;28;19920;-81
2023/06/03 02:46:08;;;;;;;;;;;3.80;99.90;;;-148.53;100.00;63986.66;5096388;28;20478;-81
2023/06/03 02:48:34;;;;;;;;;;;3.80;99.90;;;-148.53;100.00;63986.66;5056473;28;19931;-81
2023/06/03 02:51:01;;;;;;;;;;;3.70;99.90;;;-148.53;100.00;63986.66;5057869;28;19924;-81
2023/06/03 02:53:27;;;;;;;;;;;3.50;99.90;;;-148.53;100.00;63986.66;5060437;28;19921;-81
2023/06/03 02:55:53;;;;;;;;;;;3.40;99.90;;;-148.53;100.00;63986.66;5061814;28;19964;-81
2023/06/03 02:58:19;;;;;;;;;;;3.40;99.90;;;-148.53;100.00;63986.66;5057378;28;19942;-81
2023/06/03 03:00:45;;;;;;;;;;;3.20;99.90;;;-148.53;100.00;63986.66;5058937;28;19984;-81
2023/06/03 03:03:12;;;;;;;;;;;3.10;99.90;;;-148.53;100.00;63986.66;5068334;28;19959;-81
2023/06/03 03:05:38;;;;;;;;;;;3.10;99.90;;;-148.53;100.00;63986.66;5070659;28;19920;-81
2023/06/03 03:08:04;;;;;;;;;;;3.10;99.90;;;-148.53;100.00;63986.66;5077212;28;19954;-80
2023/06/03 03:10:30;;;;;;;;;;;3.10;99.90;;;-148.53;100.00;63986.66;5078935;28;19924;-81
2023/06/03 03:12:55;;;;;;;;;;;3.00;99.90;;;-148.53;100.00;63986.66;5078108;28;19928;-81
2023/06/03 03:15:22;;;;;;;;;;;3.00;99.90;;;-148.53;100.00;63986.66;5091259;28;19900;-81
2023/06/03 03:17:50;;;;;;;;;;;2.90;99.90;;;-148.53;100.00;63986.66;5076316;28;19920;-81
2023/06/03 03:20:16;;;;;;;;;;;2.80;99.90;;;-148.53;100.00;63986.66;5070370;28;20391;-81
2023/06/03 03:22:44;;;;;;;;;;;2.80;99.90;;;-148.53;100.00;63986.66;5067895;28;19920;-81
2023/06/03 03:25:12;;;;;;;;;;;2.70;99.90;;;-148.53;100.00;63986.66;5097721;28;19924;-82
2023/06/03 03:27:40;;;;;;;;;;;2.80;99.90;;;-148.53;100.00;63986.66;5070915;28;20003;-81
2023/06/03 03:30:07;;;;;;;;;;;2.80;99.90;;;-148.53;100.00;63986.66;5054668;28;20368;-80
2023/06/03 03:32:34;;;;;;;;;;;2.90;99.90;;;-148.53;100.00;63986.66;5054669;28;19960;-79
2023/06/03 03:35:09;;;;;;;;;;;3.30;99.90;;;-148.53;100.00;63986.66;5064215;28;19923;-79
2023/06/03 03:37:35;;;;;;;;;;;3.60;99.90;;;-148.53;100.00;63986.66;5057301;28;19920;-81
2023/06/03 03:40:00;;;;;;;;;;;4.00;99.90;;;-148.53;100.00;63986.66;5047407;28;20024;-81
2023/06/03 03:42:26;;;;;;;;;;;4.00;99.90;;;-148.53;100.00;63986.66;5067431;28;20389;-80
2023/06/03 03:44:52;;;;;;;;;;;4.00;99.90;;;-148.53;100.00;63986.66;5073515;28;19916;-80
2023/06/03 03:47:23;;;;;;;;;;;3.90;99.90;;;-148.53;100.00;63986.66;5072179;28;19917;-81
2023/06/03 03:49:50;;;;;;;;;;;3.90;99.90;;;-148.53;100.00;63986.66;5082311;28;20267;-80
2023/06/03 03:52:26;;;;;;;;;;;4.00;99.90;;;-148.53;100.00;63986.66;5102175;27;19925;-80
2023/06/03 03:54:52;;;;;;;;;;;4.00;99.90;;;-148.53;100.00;63986.66;5074160;28;19916;-80
2023/06/03 03:57:21;;;;;;;;;;;4.00;99.90;;;-148.53;100.00;63986.66;5068684;28;19925;-81
2023/06/03 03:59:53;;;;;;;;;;;4.10;99.90;;;-148.53;100.00;63986.66;5072684;28;19917;-80
2023/06/03 04:02:20;;;;;;;;;;;4.10;99.90;;;-148.53;100.00;63986.66;5070820;28;20435;-80
2023/06/03 04:04:46;;;;;;;;;;;4.20;99.90;;;-148.53;100.00;63986.66;5067625;28;19924;-80
2023/06/03 04:07:17;;;;;;;;;;;4.40;99.90;;;-148.53;100.00;63986.66;5068928;28;19916;-80
2023/06/03 04:09:44;;;;;;;;;;;4.40;99.90;;;-148.53;100.00;63986.66;5068543;28;19928;-81
2023/06/03 04:12:17;;;;;;;;;;;4.50;99.90;;;-148.53;100.00;63986.66;5068759;28;20459;-80
2023/06/03 04:14:51;;;;;;;;;;;4.60;99.90;;;-148.53;100.00;63986.66;5048334;28;20003;-80
2023/06/03 04:17:21;;;;;;;;;;;4.70;99.90;;;-148.53;100.00;63986.66;5072978;28;20022;-80
2023/06/03 04:19:48;;;;;;;;;;;4.80;99.90;;;-148.53;100.00;63986.66;5075050;28;20007;-81
2023/06/03 04:22:21;;;;;;;;;;;4.80;99.90;;;-148.53;100.00;63986.66;5070737;28;19920;-80
2023/06/03 04:24:53;;;;;;;;;;;5.00;99.90;;;-148.53;100.00;63986.66;5069289;28;19959;-81
2023/06/03 04:27:19;;;;;;;;;;;5.10;99.90;;;-148.53;100.00;63986.66;5067306;28;19916;-79
2023/06/03 04:29:44;;;;;;;;;;;5.20;99.90;;;-148.53;100.00;63986.66;5069814;28;20276;-80
2023/06/03 04:32:10;;;;;;;;;;;5.30;99.90;;;-148.53;100.00;63986.66;5069255;28;19963;-78
2023/06/03 04:34:48;;;;;;;;;;;5.40;99.90;;;-148.53;100.00;63986.66;5069379;28;19916;-79
2023/06/03 04:37:14;;;;;;;;;;;5.60;99.90;;;-148.53;100.00;63986.66;5073390;28;19969;-79
2023/06/03 04:39:40;;;;;;;;;;;5.70;99.90;;;-148.53;100.00;63986.66;5067759;28;20301;-78
2023/06/03 04:42:07;;;;;;;;;;;5.70;99.90;;;-148.53;100.00;63986.66;5069085;28;19966;-79
2023/06/03 04:44:34;;;;;;;;;;;5.80;99.90;;;-148.53;100.00;63986.66;5069726;28;19971;-78
2023/06/03 04:47:00;;;;;;;;;;;6.00;99.90;;;-148.53;100.00;63986.66;5069553;28;19942;-78
2023/06/03 04:49:27;;;;;;;;;;;6.00;99.90;;;-148.53;100.00;63986.66;5070927;28;20392;-79
2023/06/03 04:51:53;;;;;;;;;;;6.20;99.90;;;-148.53;100.00;63986.66;5070596;28;19924;-80
2023/06/03 04:54:23;;;;;;;;;;;6.40;99.90;;;-148.53;100.00;63986.66;5072834;28;19916;-78
2023/06/03 04:56:50;;;;;;;;;;;6.50;99.90;;;-148.53;100.00;63986.66;5069466;28;19916;-80
2023/06/03 04:59:17;;;;;;;;;;;6.70;99.90;;;-148.53;100.00;63986.66;5065286;28;20155;-81
2023/06/03 05:01:50;;;;;;;;;;;6.80;99.90;;;-148.53;100.00;63986.66;5067248;28;20361;-81
2023/06/03 05:04:19;;;;;;;;;;;6.90;99.90;;;-148.53;100.00;63986.66;5072783;28;20299;-82
2023/06/03 05:06:47;;;;;;;;;;;7.10;99.90;;;-148.53;100.00;63986.66;5069562;28;19924;-80
2023/06/03 05:09:13;;;;;;;;;;;7.30;99.90;;;-148.53;100.00;63986.66;5068572;28;19956;-80
2023/06/03 05:11:42;;;;;;;;;;;7.50;99.90;;;-148.53;100.00;63986.66;5058550;28;19920;-80
2023/06/03 05:14:08;;;;;;;;;;;7.70;99.90;;;-148.53;100.00;63986.66;5052692;28;19919;-79
2023/06/03 05:16:37;;;;;;;;;;;7.80;99.90;;;-148.53;100.00;63986.66;5056872;28;19923;-80
2023/06/03 05:19:04;;;;;;;;;;;8.00;99.90;;;-148.53;100.00;63986.66;5052514;28;19920;-81
2023/06/03 05:21:30;;;;;;;;;;;8.20;99.90;;;-148.53;100.00;63986.66;5056068;28;19940;-78
2023/06/03 05:23:56;;;;;;;;;;;8.30;99.90;;;-148.53;100.00;63986.66;5057082;28;19959;-79
2023/06/03 05:26:22;;;;;;;;;;;8.50;99.90;;;-148.53;100.00;63986.66;5057692;28;19955;-79
2023/06/03 05:28:48;;;;;;;;;;;8.60;99.90;;;-148.53;100.00;63986.66;5063059;28;20044;-80
2023/06/03 05:31:15;;;;;;;;;;;8.80;99.90;;;-148.53;100.00;63986.66;5037965;28;20423;-79
2023/06/03 05:33:41;;;;;;;;;;;8.90;99.90;;;-148.53;100.00;63986.66;5051628;28;20003;-79
2023/06/03 05:36:12;;;;;;;;;;;9.10;99.90;;;-148.53;100.00;63986.66;5066737;28;19923;-79
2023/06/03 05:38:38;;;;;;;;;;;9.20;99.90;;;-148.53;100.00;63986.66;5055263;28;19924;-80
2023/06/03 05:41:07;;;;;;;;;;;9.40;99.90;;;-148.53;100.00;63986.66;5062246;28;20135;-80
2023/06/03 05:43:33;;;;;;;;;;;9.60;99.90;;;-148.53;100.00;63986.66;5055319;28;19935;-80
2023/06/03 05:46:00;;;;;;;;;;;9.70;99.90;;;-148.53;100.00;63986.66;5048952;28;19923;-82
2023/06/03 05:48:25;;;;;;;;;;;9.80;99.90;;;-148.53;100.00;63986.66;5052117;28;19920;-81
2023/06/03 05:50:54;;;;;;;;;;;10.00;99.90;;;-148.53;100.00;63986.66;5054991;28;19939;-83
2023/06/03 05:53:26;;;;;;;;;;;10.20;99.90;;;-148.53;100.00;63986.66;5065129;28;20348;-79
2023/06/03 05:55:54;;;;;;;;;;;10.40;99.90;;;-148.53;100.00;63986.66;5055905;28;19916;-81
2023/06/03 05:58:21;;;;;;;;;;;10.60;99.90;;;-148.53;100.00;63986.66;5055182;28;19956;-86
2023/06/03 06:00:47;;;;;;;;;;;10.80;99.90;;;-148.53;100.00;63986.66;5052883;28;19921;-82
2023/06/03 06:03:14;;;;;;;;;;;11.00;99.90;;;-148.53;100.00;63986.66;5056669;28;19917;-84
2023/06/03 06:05:40;;;;;;;;;;;11.20;99.90;;;-148.53;100.00;63986.66;5051572;28;19924;-82
2023/06/03 06:08:06;;;;;;;;;;;11.30;99.90;;;-148.53;100.00;63986.66;5056084;28;19916;-81
2023/06/03 06:10:32;;;;;;;;;;;11.60;99.90;;;-148.53;100.00;63986.66;5055487;28;20022;-83
2023/06/03 06:12:58;;;;;;;;;;;11.80;99.90;;;-148.53;100.00;63986.66;5050607;28;19974;-81
2023/06/03 06:15:28;;;;;;;;;;;11.90;99.90;;;-148.53;100.00;63986.66;5055672;28;19924;-80
2023/06/03 06:17:53;;;;;;;;;;;12.10;99.90;;;-148.53;100.00;63986.66;5070025;28;20014;-79
2023/06/03 06:20:19;;;;;;;;;;;12.20;99.90;;;-148.53;100.00;63986.66;5065869;28;19996;-79
2023/06/03 06:22:48;;;;;;;;;;;12.40;99.90;;;-148.53;100.00;63986.66;5058362;28;19955;-80
2023/06/03 06:25:14;;;;;;;;;;;12.60;99.90;;;-148.53;100.00;63986.66;5060658;28;19939;-80
2023/06/03 06:27:40;;;;;;;;;;;12.70;99.90;;;-148.53;100.00;63986.66;5055431;28;19928;-79
2023/06/03 06:30:06;;;;;;;;;;;12.80;99.90;;;-148.53;100.00;63986.66;5058483;28;20347;-79
2023/06/03 06:32:47;;;;;;;;;;;13.00;99.90;;;-148.53;100.00;63986.66;5062958;28;19971;-79
2023/06/03 06:35:16;;;;;;;;;;;13.20;99.90;;;-148.53;100.00;63986.66;5056977;28;20284;-78
2023/06/03 06:37:42;;;;;;;;;;;13.40;99.90;;;-148.53;100.00;63986.66;5054135;28;19917;-79
2023/06/03 06:40:15;;;;;;;;;;;13.60;99.90;;;-148.53;100.00;63986.66;5057222;28;19921;-79
2023/06/03 06:42:44;;;;;;;;;;;13.80;99.80;;;-148.53;100.00;63986.66;5052795;28;20000;-79
2023/06/03 06:45:36;;;;;;;;;;;13.90;99.70;;;-148.53;100.00;63986.66;5059078;28;19920;-79
2023/06/03 06:48:12;;;;;;;;;;;14.10;98.40;;;-148.53;100.00;63986.66;5055792;28;19920;-78
2023/06/03 06:50:42;;;;;;;;;;;14.10;97.90;;;-148.53;100.00;63986.66;5061919;28;19992;-79
2023/06/03 06:53:08;;;;;;;;;;;14.20;97.10;;;-148.53;100.00;63986.66;5051986;28;20054;-79
2023/06/03 06:55:57;;;;;;;;;;;14.30;95.10;;;-148.53;100.00;63986.66;5060210;28;19917;-79
2023/06/03 06:58:37;;;;;;;;;;;14.40;95.70;;;-148.53;100.00;63986.66;5050631;28;20442;-79
2023/06/03 07:01:07;;;;;;;;;;;14.50;95.40;;;-148.53;100.00;63986.66;5050848;28;19962;-79
2023/06/03 07:03:36;;;;;;;;;;;14.50;94.90;;;-148.53;100.00;63986.66;5059197;28;19916;-79
2023/06/03 07:06:02;;;;;;;;;;;14.60;96.60;;;-148.53;100.00;63986.66;5056594;28;19917;-79
2023/06/03 07:08:31;;;;;;;;;;;14.70;94.10;;;-148.53;100.00;63986.66;5054612;28;19967;-80
2023/06/03 07:11:03;;;;;;;;;;;14.70;95.00;;;-148.53;100.00;63986.66;5051184;28;19952;-79
2023/06/03 07:13:33;;;;;;;;;;;14.70;94.60;;;-148.53;100.00;63986.66;5056697;28;19920;-79
2023/06/03 07:16:00;;;;;;;;;;;14.80;93.90;;;-148.53;100.00;63986.66;5057624;28;19999;-80
2023/06/03 07:18:27;;;;;;;;;;;14.90;94.80;;;-148.53;100.00;63986.66;5056289;28;19917;-79
2023/06/03 07:20:53;;;;;;;;;;;15.00;96.00;;;-148.53;100.00;63986.66;5064241;28;20000;-80
2023/06/03 07:23:24;;;;;;;;;;;15.10;92.90;;;-148.53;100.00;63986.66;5059437;28;19928;-79
2023/06/03 07:25:52;;;;;;;;;;;15.20;94.00;;;-148.53;100.00;63986.66;5061445;28;20020;-79
2023/06/03 07:28:34;;;;;;;;;;;15.40;92.50;;;-148.53;100.00;63986.66;5068711;28;20283;-79
2023/06/03 07:31:09;;;;;;;;;;;15.50;92.20;;;-148.53;100.00;63986.66;5065638;28;20025;-79
2023/06/03 07:33:52;;;;;;;;;;;15.60;91.60;;;-148.53;100.00;63986.66;5054267;28;19994;-80
2023/06/03 07:36:26;;;;;;;;;;;15.70;90.10;;;-148.53;100.00;63986.66;5054004;28;19977;-80
2023/06/03 07:39:07;;;;;;;;;;;15.80;88.60;;;-148.53;100.00;63986.66;5059897;28;19920;-79
2023/06/03 07:41:45;;;;;;;;;;;16.00;87.50;;;-148.53;100.00;63986.66;5061559;28;19919;-79
2023/06/03 07:44:25;;;;;;;;;;;16.10;87.50;;;-148.53;100.00;63986.66;5055156;28;19927;-79
2023/06/03 07:46:57;;;;;;;;;;;16.20;88.50;;;-148.53;100.00;63986.66;5068441;28;20010;-79
2023/06/03 07:49:23;;;;;;;;;;;16.20;84.20;;;-148.53;100.00;63986.66;5062455;28;19916;-79
2023/06/03 07:51:51;;;;;;;;;;;16.30;80.70;;;-148.53;100.00;63986.66;5054882;28;19916;-79
2023/06/03 07:54:18;;;;;;;;;;;16.40;80.80;;;-148.53;100.00;63986.66;5055002;28;19916;-79
2023/06/03 07:56:45;;;;;;;;;;;16.50;80.30;;;-148.53;100.00;63986.66;5059493;28;19946;-79
2023/06/03 07:59:12;;;;;;;;;;;16.60;81.10;;;-148.53;100.00;63986.66;5054633;28;20051;-77
2023/06/03 08:01:38;;;;;;;;;;;16.80;83.80;;;-148.53;100.00;63986.66;5062546;28;19959;-78
2023/06/03 08:04:24;;;;;;;;;;;16.80;77.90;;;-148.53;100.00;63986.66;5059895;28;19923;-79
2023/06/03 08:06:52;;;;;;;;;;;16.90;78.90;;;-148.53;100.00;63986.66;5054796;28;19916;-78
2023/06/03 08:09:27;;;;;;;;;;;17.00;75.60;;;-148.53;100.00;63986.66;5054482;28;19921;-78
2023/06/03 08:11:54;;;;;;;;;;;17.10;76.20;;;-148.53;100.00;63986.66;5059055;28;19916;-79
2023/06/03 08:14:21;;;;;;;;;;;17.20;74.70;;;-148.53;100.00;63986.66;5054402;28;19955;-78
2023/06/03 08:16:47;;;;;;;;;;;17.30;72.70;;;-148.53;100.00;63986.66;5054844;28;19917;-79
2023/06/03 08:19:16;;;;;;;;;;;17.40;72.60;;;-148.53;100.00;63986.66;5041431;28;20320;-78
2023/06/03 08:21:42;;;;;;;;;;;17.50;71.90;;;-148.53;100.00;63986.66;5057260;28;19922;-78
2023/06/03 08:24:09;;;;;;;;;;;17.50;72.80;;;-148.53;100.00;63986.66;5059299;28;19920;-77
2023/06/03 08:26:36;;;;;;;;;;;17.70;72.40;;;-148.53;100.00;63986.66;5054757;28;20348;-78
2023/06/03 08:29:03;;;;;;;;;;;17.80;71.00;;;-148.53;100.00;63986.66;5061207;28;19923;-79
2023/06/03 08:31:32;;;;;;;;;;;17.80;71.40;;;-148.53;100.00;63986.66;5054132;28;19920;-78
2023/06/03 08:33:58;;;;;;;;;;;17.90;72.80;;;-148.53;100.00;63986.66;5054073;28;20038;-78
2023/06/03 08:36:24;;;;;;;;;;;17.90;71.70;;;-148.53;100.00;63986.66;5057588;28;19978;-78
2023/06/03 08:38:50;;;;;;;;;;;17.90;71.80;;;-148.53;100.00;63986.66;5088319;28;20357;-79
2023/06/03 08:41:15;;;;;;;;;;;17.90;72.00;;;-148.53;100.00;63986.66;5059617;28;20003;-78
2023/06/03 08:43:56;;;;;;;;;;;17.90;70.50;;;-148.53;100.00;63986.66;5054383;28;19916;-79
2023/06/03 08:46:26;;;;;;;;;;;17.90;69.00;;;-148.53;100.00;63986.66;5054089;28;20087;-78
2023/06/03 08:49:01;;;;;;;;;;;18.10;71.60;;;-148.53;100.00;63986.66;5054217;28;19952;-78
2023/06/03 08:51:27;;;;;;;;;;;18.20;68.80;;;-148.53;100.00;63986.66;5054274;28;19924;-78
2023/06/03 08:53:52;;;;;;;;;;;18.40;69.40;;;-148.53;100.00;63986.66;5055251;28;19920;-80
2023/06/03 08:56:20;;;;;;;;;;;18.60;67.10;;;-148.53;100.00;63986.66;5087612;28;19917;-78
2023/06/03 08:58:49;;;;;;;;;;;18.70;67.10;;;-148.53;100.00;63986.66;5066617;28;19920;-79
2023/06/03 09:01:16;;;;;;;;;;;18.90;65.60;;;-148.53;100.00;63986.66;5064368;28;19972;-79
2023/06/03 09:03:43;;;;;;;;;;;18.90;65.00;;;-148.53;100.00;63986.66;5060353;28;20430;-78
2023/06/03 09:06:10;;;;;;;;;;;19.10;65.10;;;-148.53;100.00;63986.66;5053358;28;19963;-77
2023/06/03 09:08:39;;;;;;;;;;;19.30;65.40;;;-148.53;100.00;63986.66;5055948;28;19955;-79
2023/06/03 09:11:07;;;;;;;;;;;19.40;63.20;;;-148.53;100.00;63986.66;5053324;28;19923;-79
2023/06/03 09:13:33;;;;;;;;;;;19.40;62.50;;;-148.53;100.00;63986.66;5053008;28;19917;-80
2023/06/03 09:15:59;;;;;;;;;;;19.50;58.60;;;-148.53;100.00;63986.66;5059219;28;19916;-80
2023/06/03 09:18:25;;;;;;;;;;;19.60;60.10;;;-148.53;100.00;63986.66;5058355;28;19923;-80
2023/06/03 09:20:50;;;;;;;;;;;19.70;62.50;;;-148.53;100.00;63986.66;5056285;28;19952;-80
2023/06/03 09:23:17;;;;;;;;;;;19.80;61.50;;;-148.53;100.00;63986.66;5053319;28;19924;-80
2023/06/03 09:25:43;;;;;;;;;;;20.00;59.80;;;-148.53;100.00;63986.66;5051647;28;20007;-80
2023/06/03 09:28:10;;;;;;;;;;;20.00;58.80;;;-148.53;100.00;63986.66;5053203;28;19917;-79
2023/06/03 09:30:36;;;;;;;;;;;20.10;59.60;;;-148.53;100.00;63986.66;5052367;28;20372;-80
2023/06/03 09:33:01;;;;;;;;;;;20.20;59.00;;;-148.53;100.00;63986.66;5052919;28;19960;-80
2023/06/03 09:35:27;;;;;;;;;;;20.40;57.80;;;-148.53;100.00;63986.66;5056177;28;19916;-79
2023/06/03 09:38:00;;;;;;;;;;;20.60;59.70;;;-148.53;100.00;63986.66;5051668;28;20360;-79
2023/06/03 09:40:27;;;;;;;;;;;20.70;57.50;;;-148.53;100.00;63986.66;5055256;28;19982;-79
2023/06/03 09:42:53;;;;;;;;;;;20.60;57.20;;;-148.53;100.00;63986.66;5052512;28;20384;-79
2023/06/03 09:45:35;;;;;;;;;;;20.60;59.50;;;-148.53;100.00;63986.66;5060140;28;19917;-81
2023/06/03 09:48:02;;;;;;;;;;;20.70;59.40;;;-148.53;100.00;63986.66;5059572;28;19966;-80
2023/06/03 09:50:30;;;;;;;;;;;20.80;58.10;;;-148.53;100.00;63986.66;5058029;28;19999;-80
2023/06/03 09:52:56;;;;;;;;;;;20.80;58.20;;;-148.53;100.00;63986.66;5055544;28;19923;-79
2023/06/03 09:55:29;;;;;;;;;;;21.00;59.20;;;-148.53;100.00;63986.66;5056958;28;19924;-80
2023/06/03 09:58:13;;;;;;;;;;;21.30;58.30;;;-148.53;100.00;63986.66;5055029;28;19979;-80
2023/06/03 10:00:49;;;;;;;;;;;21.60;57.00;;;-148.53;100.00;63986.66;5055566;28;19916;-79
2023/06/03 10:03:19;;;;;;;;;;;21.50;56.80;;;-148.53;100.00;63986.66;5064629;28;19923;-79
2023/06/03 10:05:45;;;;;;;;;;;21.70;52.70;;;-148.53;100.00;63986.66;5053127;28;19970;-79
2023/06/03 10:08:10;;;;;;;;;;;21.80;53.30;;;-148.53;100.00;63986.66;5058792;28;19916;-80
2023/06/03 10:10:54;;;;;;;;;;;22.00;55.20;;;-148.53;100.00;63986.66;5059731;28;20070;-80
2023/06/03 10:13:21;;;;;;;;;;;22.00;51.70;;;-148.53;100.00;63986.66;5053424;28;20338;-80
2023/06/03 10:15:48;;;;;;;;;;;22.30;52.30;;;-148.53;100.00;63986.66;5057277;28;20016;-82
2023/06/03 10:18:15;;;;;;;;;;;22.20;50.80;;;-148.53;100.00;63986.66;5052291;28;19921;-81
2023/06/03 10:20:42;;;;;;;;;;;;;;;-148.53;100.00;63986.66;5061077;28;19926;-80
2023/06/03 10:23:09;;;;;;;;;;;;;;;-148.53;100.00;63986.66;5052746;28;20067;-81
2023/06/03 10:25:45;;;;;;;;;;;;;;;-148.53;100.00;63986.66;5051099;28;20000;-81
2023/06/03 10:28:12;;;;;;;;;;;;;;;-148.53;100.00;63986.66;5052881;28;20389;-81
2023/06/03 10:30:39;;;;;;;;;;;;;;;-148.53;100.00;63986.66;5052141;28;19924;-82
2023/06/03 10:33:09;;;;;;;;;;;;;;;-148.53;100.00;63986.66;5055258;28;19924;-81
2023/06/03 10:35:36;;;;;;;;;;;;;;;-148.53;100.00;63986.66;5058546;28;19920;-81
2023/06/03 10:38:03;;;;;;;;;;;;;;;-148.53;100.00;63986.66;5057786;28;20360;-82
2023/06/03 10:40:29;;;;;;;;;;;;;;;-148.53;100.00;63986.66;5050231;28;19916;-81
2023/06/03 10:42:56;;;;;;;;;;;;;;;-148.53;100.00;63986.66;5052670;28;20019;-81
2023/06/03 10:45:22;;;;;;;;;;;;;;;-148.53;100.00;63986.66;5052301;28;19917;-81
2023/06/03 10:47:50;;;;;;;;;;;;;;;-148.53;100.00;63986.66;5057134;28;20344;-82
2023/06/03 10:50:16;;;;;;;;;;;;;;;-148.53;100.00;63986.66;5057856;28;20384;-81
2023/06/03 10:52:56;;;;;;;;;;;;;;;-148.53;100.00;63986.66;5084325;28;20003;-81
2023/06/03 10:55:58;;;;;;;;;;;;;;;-148.53;100.00;63986.66;5052346;28;19917;-80
2023/06/03 10:58:25;;;;;;;;;;;;;;;-148.53;100.00;63986.66;5009341;28;19917;-82
2023/06/03 11:00:58;;;;;;;;;;;;;;;-148.53;100.00;63986.66;5048688;28;19938;-82
2023/06/03 11:03:28;;;;;;;;;;;;;;;-148.53;100.00;63986.66;5056073;28;20408;-80
2023/06/03 11:06:15;;;;;;;;;;;;;;;-148.53;100.00;63986.66;5061814;28;20267;-81
2023/06/03 11:08:57;;;;;;;;;;;;;;;-148.53;100.00;63986.66;5056215;28;20300;-81
2023/06/03 11:11:59;;;;;;;;;;;;;;;-148.53;100.00;63986.66;5055806;28;20038;-80